Bookmark and Share
Track history (hours):
 

Pretty Lady

Last reported at 2014-Jan-08 17:33 UTC. Time now 2014-Apr-23 09:47 UTC.
Position N 37°30' W 000°40'.
Warning: this ship's position is months out of date.

Length 189 m; draft 11.7 m.

Type: Cargo ship. MMSI: 249617000.

NotesDate/timePositionNaut miles runAvg speedWind from/ knotsBaromVisibWave heightAir tempDewpointWater temp
2014-Jan-08 17:33N 37°30' W 000°40'1313.1
2014-Jan-08 16:33N 37°40' W 000°29'1413.7
2014-Jan-08 15:33N 37°52' W 000°19'1413.9
2014-Jan-08 14:33N 38°03' W 000°10'1413.4
2014-Jan-08 13:32N 38°15' E 000°00'8313.5
2014-Jan-08 07:24N 39°26' E 000°54'1313.8
2014-Jan-08 06:28N 39°38' E 001°01'1213.5
2014-Jan-08 05:33N 39°49' E 001°09'1413.7
2014-Jan-08 04:33N 40°01' E 001°17'1414.2
2014-Jan-08 03:33N 40°13' E 001°26'1414.0
2014-Jan-08 02:33N 40°26' E 001°35'1313.5
2014-Jan-08 01:33N 40°38' E 001°43'1413.7
2014-Jan-08 00:33N 40°50' E 001°51'1413.8
2014-Jan-07 23:33N 41°02' E 001°58'1313.3
2014-Jan-07 22:33N 41°14' E 002°08'8 1.6
2014-Jan-07 17:19N 41°22' E 002°10'0 0.0
2014-Jan-07 16:13N 41°22' E 002°10'0 0.0
2014-Jan-07 15:13N 41°22' E 002°10'0 0.0
2014-Jan-07 14:25N 41°22' E 002°10'0 0.0
2014-Jan-07 13:31N 41°22' E 002°10'0 0.0
2014-Jan-07 10:06N 41°22' E 002°10'0 0.0
2014-Jan-07 05:33N 41°22' E 002°10'0 0.0
2014-Jan-07 04:33N 41°22' E 002°10'0 0.0
2014-Jan-07 03:33N 41°22' E 002°10'0 0.0
2014-Jan-07 02:24N 41°22' E 002°10'0 0.0
2014-Jan-07 01:24N 41°22' E 002°10'0 0.0
2014-Jan-07 00:24N 41°22' E 002°10'0 0.0
2014-Jan-06 23:30N 41°22' E 002°10'0 0.0
2014-Jan-06 22:30N 41°22' E 002°10'0 0.0
2014-Jan-06 21:30N 41°22' E 002°10'0 0.0
2014-Jan-06 20:33N 41°22' E 002°10'0 0.0
2014-Jan-06 19:33N 41°22' E 002°10'0 0.0
2014-Jan-06 16:24N 41°22' E 002°10'  
2014-Jan-03 13:29N 41°19' E 002°12'0 0.0
2014-Jan-03 10:17N 41°19' E 002°12'0 0.0
2014-Jan-03 02:29N 41°19' E 002°12'0 0.0
2014-Jan-03 01:29N 41°19' E 002°12'0 0.0
2014-Jan-03 00:32N 41°19' E 002°12'0 0.0
2014-Jan-02 23:29N 41°19' E 002°12'0 0.0
2014-Jan-02 22:32N 41°19' E 002°12'0 0.0
2014-Jan-02 21:29N 41°19' E 002°12'0 0.0
2014-Jan-02 20:29N 41°19' E 002°12'0 0.0
2014-Jan-02 19:29N 41°19' E 002°12'0 0.0
2014-Jan-02 18:17N 41°19' E 002°12'315 9.3
2014-Jan-01 08:26N 38°36' E 008°02'22 9.8
2014-Jan-01 06:10N 38°25' E 008°27'185 8.5
2013-Dec-31 08:18N 37°05' E 011°58'810.9
2013-Dec-31 07:33N 37°02' E 012°08'6510.3
2013-Dec-31 01:15N 36°43' E 013°25'7 9.6
2013-Dec-31 00:30N 36°40' E 013°34'9 9.1
2013-Dec-30 23:33N 36°38' E 013°44'9 8.5
2013-Dec-30 22:33N 36°35' E 013°54'8 8.1
2013-Dec-30 21:32N 36°33' E 014°04'9 8.8
2013-Dec-30 20:33N 36°31' E 014°14'8 8.4
2013-Dec-30 19:33N 36°28' E 014°24'9 8.5
2013-Dec-30 18:29N 36°26' E 014°35'  

Dump ship's entire track history

sailing weather and tide predictions

Pretty Lady — 9HVY9 — position and weather